createdAt,value
2017-10-23T00:01:06.668Z,982.18
2017-10-23T00:02:06.558Z,982.16
2017-10-23T00:03:59.553Z,982.21
2017-10-23T00:04:59.946Z,982.14
2017-10-23T00:06:52.571Z,982.16
2017-10-23T00:07:52.188Z,982.19
2017-10-23T00:09:45.480Z,982.16
2017-10-23T00:10:45.067Z,982.20
2017-10-23T00:13:38.101Z,982.18
2017-10-23T00:15:33.008Z,982.13
2017-10-23T00:16:32.864Z,982.12
2017-10-23T00:18:25.797Z,982.14
2017-10-23T00:19:25.770Z,982.10
2017-10-23T00:21:19.266Z,982.14
2017-10-23T00:22:18.842Z,982.12
2017-10-23T00:24:11.712Z,982.15
2017-10-23T00:25:11.671Z,982.18
2017-10-23T00:27:04.785Z,982.16
2017-10-23T00:28:04.288Z,982.18
2017-10-23T00:29:57.702Z,982.21
2017-10-23T00:30:58.068Z,982.16
2017-10-23T00:32:52.200Z,982.24
2017-10-23T00:33:52.139Z,982.24
2017-10-23T00:35:45.306Z,982.22
2017-10-23T00:36:44.726Z,982.23
2017-10-23T00:38:38.072Z,982.27
2017-10-23T00:39:37.616Z,982.22
2017-10-23T00:41:31.133Z,982.25
2017-10-23T00:42:30.646Z,982.25
2017-10-23T00:44:23.941Z,982.25
2017-10-23T00:45:23.897Z,982.21
2017-10-23T00:47:17.000Z,982.25
2017-10-23T00:48:16.819Z,982.23
2017-10-23T00:50:11.395Z,982.22
2017-10-23T00:51:11.292Z,982.28
2017-10-23T00:53:04.589Z,982.31
2017-10-23T00:54:04.291Z,982.27
2017-10-23T00:55:57.484Z,982.30
2017-10-23T00:56:57.101Z,982.30
2017-10-23T00:58:50.440Z,982.36
2017-10-23T00:59:50.378Z,982.30
2017-10-23T01:01:43.653Z,982.29
2017-10-23T01:02:43.271Z,982.27
2017-10-23T01:04:36.597Z,982.32
2017-10-23T01:05:36.226Z,982.32
2017-10-23T01:07:30.137Z,982.38
2017-10-23T01:08:29.689Z,982.34
2017-10-23T01:10:24.526Z,982.35
2017-10-23T01:11:24.148Z,982.39
2017-10-23T01:13:17.553Z,982.40
2017-10-23T01:14:17.115Z,982.45
2017-10-23T01:16:11.971Z,982.48
2017-10-23T01:17:11.632Z,982.44
2017-10-23T01:19:05.513Z,982.48
2017-10-23T01:20:05.439Z,982.48
2017-10-23T01:22:00.007Z,982.46
2017-10-23T01:22:59.578Z,982.52
2017-10-23T01:24:52.877Z,982.49
2017-10-23T01:25:52.455Z,982.48
2017-10-23T01:27:45.949Z,982.54
2017-10-23T01:28:45.821Z,982.58
2017-10-23T01:30:38.852Z,982.55
2017-10-23T01:31:38.729Z,982.57
2017-10-23T01:33:31.725Z,982.55
2017-10-23T01:34:31.404Z,982.51
2017-10-23T01:36:24.768Z,982.53
2017-10-23T01:37:24.375Z,982.53
2017-10-23T01:39:18.075Z,982.52
2017-10-23T01:40:17.675Z,982.52
2017-10-23T01:42:12.218Z,982.53
2017-10-23T01:43:12.025Z,982.49
2017-10-23T01:45:05.200Z,982.51
2017-10-23T01:46:05.086Z,982.52
2017-10-23T01:47:58.566Z,982.54
2017-10-23T01:48:57.756Z,982.50
2017-10-23T01:50:50.839Z,982.49
2017-10-23T01:51:50.938Z,982.45
2017-10-23T01:53:45.528Z,982.50
2017-10-23T01:54:45.126Z,982.47
2017-10-23T01:56:38.537Z,982.46
2017-10-23T01:57:38.151Z,982.42
2017-10-23T01:59:31.392Z,982.47
2017-10-23T02:00:31.431Z,982.47
2017-10-23T02:02:24.417Z,982.51
2017-10-23T02:03:24.080Z,982.50
2017-10-23T02:05:17.388Z,982.54
2017-10-23T02:06:17.010Z,982.51
2017-10-23T02:08:11.766Z,982.53
2017-10-23T02:09:11.329Z,982.54
2017-10-23T02:11:04.664Z,982.56
2017-10-23T02:12:04.680Z,982.60
2017-10-23T02:13:57.697Z,982.60
2017-10-23T02:14:57.231Z,982.60
2017-10-23T02:16:50.617Z,982.56
2017-10-23T02:17:50.195Z,982.59
2017-10-23T02:19:43.568Z,982.59
2017-10-23T02:20:43.219Z,982.58
2017-10-23T02:22:36.463Z,982.58
2017-10-23T02:23:36.134Z,982.59
2017-10-23T02:25:29.496Z,982.59
2017-10-23T02:26:29.295Z,982.58
2017-10-23T02:28:23.951Z,982.58
2017-10-23T02:29:23.804Z,982.60
2017-10-23T02:31:16.893Z,982.59
2017-10-23T02:32:16.862Z,982.57
2017-10-23T02:34:09.786Z,982.67
2017-10-23T02:35:09.458Z,982.65
2017-10-23T02:37:02.907Z,982.69
2017-10-23T02:38:02.405Z,982.68
2017-10-23T02:39:55.810Z,982.72
2017-10-23T02:40:55.637Z,982.71
2017-10-23T02:42:50.230Z,982.74
2017-10-23T02:43:50.003Z,982.75
2017-10-23T02:45:43.793Z,982.75
2017-10-23T02:46:43.360Z,982.72
2017-10-23T02:48:38.199Z,982.79
2017-10-23T02:49:37.890Z,982.76
2017-10-23T02:51:31.266Z,982.74
2017-10-23T02:52:31.184Z,982.76
2017-10-23T02:54:24.204Z,982.73
2017-10-23T02:55:23.811Z,982.81
2017-10-23T02:57:17.093Z,982.82
2017-10-23T02:58:16.699Z,982.83
2017-10-23T03:00:10.098Z,982.87
2017-10-23T03:01:09.607Z,982.88
2017-10-23T03:03:02.640Z,982.84
2017-10-23T03:04:02.833Z,982.89
2017-10-23T03:05:57.496Z,982.93
2017-10-23T03:06:57.413Z,982.93
2017-10-23T03:08:50.456Z,982.92
2017-10-23T03:09:49.967Z,982.97
2017-10-23T03:11:43.450Z,982.95
2017-10-23T03:12:43.150Z,982.96
2017-10-23T03:14:36.282Z,982.98
2017-10-23T03:15:36.213Z,982.97
2017-10-23T03:17:30.868Z,982.98
2017-10-23T03:18:30.654Z,982.95
2017-10-23T03:20:23.801Z,982.99
2017-10-23T03:21:23.240Z,982.94
2017-10-23T03:23:16.648Z,982.97
2017-10-23T03:24:16.544Z,982.96
2017-10-23T03:26:09.534Z,982.91
2017-10-23T03:27:09.244Z,983.00
2017-10-23T03:29:02.539Z,983.03
2017-10-23T03:30:02.489Z,982.98
2017-10-23T03:31:57.064Z,982.99
2017-10-23T03:32:56.928Z,983.01
2017-10-23T03:34:50.061Z,983.05
2017-10-23T03:35:49.695Z,983.03
2017-10-23T03:37:42.935Z,983.04
2017-10-23T03:38:42.891Z,982.99
2017-10-23T03:40:35.954Z,983.07
2017-10-23T03:41:35.482Z,983.10
2017-10-23T03:43:28.823Z,983.08
2017-10-23T03:44:28.765Z,983.06
2017-10-23T03:46:21.861Z,983.09
2017-10-23T03:47:21.413Z,983.06
2017-10-23T03:49:14.396Z,983.07
2017-10-23T03:50:15.168Z,983.11
2017-10-23T03:52:09.072Z,983.10
2017-10-23T03:53:08.756Z,983.19
2017-10-23T03:55:03.666Z,983.11
2017-10-23T03:56:03.217Z,983.15
2017-10-23T03:57:56.582Z,983.11
2017-10-23T03:58:56.148Z,983.12
2017-10-23T04:00:49.600Z,983.09
2017-10-23T04:01:49.239Z,983.11
2017-10-23T04:03:42.622Z,983.08
2017-10-23T04:04:42.158Z,983.13
2017-10-23T04:06:36.119Z,983.12
2017-10-23T04:07:35.677Z,983.14
2017-10-23T04:09:30.734Z,983.07
2017-10-23T04:10:30.280Z,983.08
2017-10-23T04:12:23.612Z,983.14
2017-10-23T04:13:23.250Z,983.14
2017-10-23T04:15:16.684Z,983.10
2017-10-23T04:16:16.521Z,983.09
2017-10-23T04:18:09.375Z,983.09
2017-10-23T04:19:09.076Z,983.08
2017-10-23T04:21:02.655Z,983.07
2017-10-23T04:22:02.283Z,983.12
2017-10-23T04:23:02.221Z,983.10
2017-10-23T04:24:02.834Z,983.10
2017-10-23T04:25:02.205Z,983.09
2017-10-23T04:26:02.450Z,983.09
2017-10-23T04:27:02.044Z,983.10
2017-10-23T04:28:02.011Z,983.08
2017-10-23T04:29:01.956Z,983.05
2017-10-23T04:30:01.910Z,983.02
2017-10-23T04:31:01.865Z,983.05
2017-10-23T04:32:01.823Z,983.01
2017-10-23T04:33:01.775Z,983.03
2017-10-23T04:34:01.737Z,983.02
2017-10-23T04:35:01.701Z,983.03
2017-10-23T04:36:01.657Z,983.05
2017-10-23T04:37:01.645Z,983.00
2017-10-23T04:38:01.614Z,983.02
2017-10-23T04:39:01.523Z,983.00
2017-10-23T04:40:01.493Z,982.99
2017-10-23T04:41:01.453Z,982.98
2017-10-23T04:42:01.413Z,983.00
2017-10-23T04:43:01.358Z,982.99
2017-10-23T04:44:01.335Z,983.02
2017-10-23T04:45:01.282Z,983.01
2017-10-23T04:46:01.235Z,983.03
2017-10-23T04:47:01.196Z,982.96
2017-10-23T04:48:01.162Z,983.04
2017-10-23T04:49:01.133Z,983.01
2017-10-23T04:50:01.081Z,983.01
2017-10-23T04:51:01.066Z,983.02
2017-10-23T04:52:00.992Z,983.06
2017-10-23T04:53:00.972Z,982.99
2017-10-23T04:54:00.908Z,983.01
2017-10-23T04:55:00.879Z,983.03
2017-10-23T04:56:00.840Z,983.02
2017-10-23T04:57:00.804Z,983.02
2017-10-23T04:58:00.746Z,983.04
2017-10-23T04:59:00.725Z,983.00
2017-10-23T05:00:00.653Z,983.01
2017-10-23T05:01:00.648Z,983.01
2017-10-23T05:02:00.583Z,983.05
2017-10-23T05:03:00.543Z,983.04
2017-10-23T05:04:00.527Z,983.06
2017-10-23T05:05:00.458Z,982.94
2017-10-23T05:06:00.432Z,983.08
2017-10-23T05:07:00.398Z,983.02
2017-10-23T05:08:00.341Z,983.05
2017-10-23T05:09:00.311Z,983.08
2017-10-23T05:10:00.251Z,983.09
2017-10-23T05:11:00.236Z,983.09
2017-10-23T05:12:00.219Z,983.06
2017-10-23T05:13:00.163Z,983.11
2017-10-23T05:14:00.102Z,983.07
2017-10-23T05:15:00.047Z,983.06
2017-10-23T05:16:00.022Z,983.07
2017-10-23T05:17:00.027Z,983.10
2017-10-23T05:17:59.953Z,983.08
2017-10-23T05:18:59.870Z,983.11
2017-10-23T05:19:59.863Z,983.11
2017-10-23T05:20:59.815Z,983.13
2017-10-23T05:21:59.766Z,983.12
2017-10-23T05:22:59.711Z,983.14
2017-10-23T05:23:59.683Z,983.16
2017-10-23T05:24:59.718Z,983.14
2017-10-23T05:25:59.582Z,983.18
2017-10-23T05:26:59.600Z,983.17
2017-10-23T05:27:59.525Z,983.22
2017-10-23T05:28:59.472Z,983.26
2017-10-23T05:29:59.443Z,983.25
2017-10-23T05:30:59.423Z,983.27
2017-10-23T05:31:59.337Z,983.27
2017-10-23T05:32:59.296Z,983.27
2017-10-23T05:33:59.251Z,983.30
2017-10-23T05:34:59.232Z,983.31
2017-10-23T05:35:59.229Z,983.29
2017-10-23T05:36:59.130Z,983.34
2017-10-23T05:37:59.134Z,983.35
2017-10-23T05:38:59.043Z,983.30
2017-10-23T05:39:59.032Z,983.32
2017-10-23T05:40:59.053Z,983.33
2017-10-23T05:41:58.924Z,983.33
2017-10-23T05:42:58.908Z,983.37
2017-10-23T05:43:58.830Z,983.39
2017-10-23T05:44:58.799Z,983.40
2017-10-23T05:45:58.849Z,983.40
2017-10-23T05:46:58.706Z,983.44
2017-10-23T05:47:58.673Z,983.41
2017-10-23T05:48:58.628Z,983.34
2017-10-23T05:49:58.603Z,983.41
2017-10-23T05:50:58.543Z,983.39
2017-10-23T05:51:58.500Z,983.40
2017-10-23T05:52:58.464Z,983.39
2017-10-23T05:53:58.474Z,983.37
2017-10-23T05:54:58.403Z,983.31
2017-10-23T05:55:58.356Z,983.36
2017-10-23T05:56:58.294Z,983.38
2017-10-23T05:57:58.262Z,983.39
2017-10-23T05:58:58.230Z,983.41
2017-10-23T05:59:58.179Z,983.40
2017-10-23T06:00:58.149Z,983.38
2017-10-23T06:01:58.096Z,983.42
2017-10-23T06:02:58.050Z,983.42
2017-10-23T06:03:58.020Z,983.46
2017-10-23T06:04:57.973Z,983.50
2017-10-23T06:05:57.936Z,983.51
2017-10-23T06:06:57.888Z,983.53
2017-10-23T06:07:57.843Z,983.55
2017-10-23T06:08:57.811Z,983.60
2017-10-23T06:09:57.757Z,983.55
2017-10-23T06:10:57.782Z,983.63
2017-10-23T06:11:57.732Z,983.61
2017-10-23T06:12:57.653Z,983.65
2017-10-23T06:13:57.604Z,983.61
2017-10-23T06:14:57.560Z,983.64
2017-10-23T06:15:57.516Z,983.67
2017-10-23T06:16:57.468Z,983.68
2017-10-23T06:17:57.484Z,983.68
2017-10-23T06:18:57.390Z,983.72
2017-10-23T06:19:57.349Z,983.68
2017-10-23T06:20:57.310Z,983.70
2017-10-23T06:21:57.276Z,983.72
2017-10-23T06:22:57.258Z,983.74
2017-10-23T06:23:57.183Z,983.76
2017-10-23T06:24:57.142Z,983.84
2017-10-23T06:25:57.097Z,983.77
2017-10-23T06:26:57.056Z,983.75
2017-10-23T06:27:57.020Z,983.76
2017-10-23T06:28:57.057Z,983.79
2017-10-23T06:29:56.960Z,983.80
2017-10-23T06:30:56.915Z,983.79
2017-10-23T06:31:56.874Z,983.79
2017-10-23T06:32:56.856Z,983.78
2017-10-23T06:33:56.777Z,983.75
2017-10-23T06:34:56.734Z,983.78
2017-10-23T06:35:56.724Z,983.73
2017-10-23T06:36:56.644Z,983.74
2017-10-23T06:37:56.604Z,983.74
2017-10-23T06:38:56.568Z,983.71
2017-10-23T06:39:56.516Z,983.71
2017-10-23T06:40:56.485Z,983.70
2017-10-23T06:41:56.444Z,983.71
2017-10-23T06:42:56.520Z,983.73
2017-10-23T06:43:56.379Z,983.72
2017-10-23T06:44:56.338Z,983.73
2017-10-23T06:45:56.294Z,983.60
2017-10-23T06:46:56.230Z,983.75
2017-10-23T06:47:56.224Z,983.75
2017-10-23T06:48:56.180Z,983.83
2017-10-23T06:49:56.116Z,983.81
2017-10-23T06:50:56.063Z,983.83
2017-10-23T06:51:56.028Z,983.82
2017-10-23T06:52:55.996Z,983.82
2017-10-23T06:53:55.956Z,983.86
2017-10-23T06:54:55.917Z,983.86
2017-10-23T06:55:55.868Z,983.84
2017-10-23T06:56:55.881Z,983.87
2017-10-23T06:57:55.827Z,983.89
2017-10-23T06:58:55.737Z,983.89
2017-10-23T06:59:55.700Z,983.92
2017-10-23T07:00:55.662Z,983.91
2017-10-23T07:01:55.609Z,983.88
2017-10-23T07:02:55.596Z,983.95
2017-10-23T07:03:55.556Z,983.92
2017-10-23T07:04:55.501Z,983.97
2017-10-23T07:05:55.455Z,983.94
2017-10-23T07:06:55.410Z,983.97
2017-10-23T07:07:55.376Z,983.96
2017-10-23T07:08:55.342Z,983.98
2017-10-23T07:09:55.283Z,983.99
2017-10-23T07:10:55.244Z,983.99
2017-10-23T07:11:55.208Z,983.98
2017-10-23T07:12:55.231Z,983.96
2017-10-23T07:13:55.134Z,983.99
2017-10-23T07:14:55.107Z,983.99
2017-10-23T07:15:55.054Z,984.00
2017-10-23T07:16:55.036Z,983.97
2017-10-23T07:17:54.968Z,984.01
2017-10-23T07:18:54.924Z,984.01
2017-10-23T07:19:54.892Z,984.00
2017-10-23T07:20:54.849Z,984.01
2017-10-23T07:21:54.811Z,984.07
2017-10-23T07:22:54.796Z,984.04
2017-10-23T07:23:54.721Z,984.08
2017-10-23T07:24:54.667Z,984.04
2017-10-23T07:25:54.645Z,984.07
2017-10-23T07:26:54.617Z,984.05
2017-10-23T07:27:54.571Z,984.01
2017-10-23T07:28:54.550Z,984.09
2017-10-23T07:29:54.466Z,984.09
2017-10-23T07:30:54.440Z,984.10
2017-10-23T07:31:54.398Z,984.11
2017-10-23T07:32:54.396Z,984.11
2017-10-23T07:33:54.311Z,984.11
2017-10-23T07:34:54.270Z,984.11
2017-10-23T07:35:54.223Z,984.13
2017-10-23T07:36:54.241Z,984.11
2017-10-23T07:37:54.141Z,984.17
2017-10-23T07:38:54.109Z,984.18
2017-10-23T07:39:54.072Z,984.18
2017-10-23T07:40:54.026Z,984.18
2017-10-23T07:41:53.995Z,984.16
2017-10-23T07:42:53.939Z,984.19
2017-10-23T07:43:53.910Z,984.17
2017-10-23T07:44:53.864Z,984.17
2017-10-23T07:45:53.827Z,984.18
2017-10-23T07:46:53.785Z,984.17
2017-10-23T07:47:53.749Z,984.19
2017-10-23T07:48:53.708Z,984.19
2017-10-23T07:49:53.664Z,984.18
2017-10-23T07:50:53.620Z,984.21
2017-10-23T07:51:53.596Z,984.22
2017-10-23T07:52:53.551Z,984.17
2017-10-23T07:53:53.536Z,984.18
2017-10-23T07:54:53.452Z,984.22
2017-10-23T07:55:53.426Z,984.23
2017-10-23T07:56:53.362Z,984.21
2017-10-23T07:57:53.372Z,984.15
2017-10-23T07:58:53.292Z,984.18
2017-10-23T07:59:53.245Z,984.13
2017-10-23T08:00:53.230Z,984.22
2017-10-23T08:01:53.170Z,984.17
2017-10-23T08:02:53.142Z,984.20
2017-10-23T08:03:53.121Z,984.19
2017-10-23T08:04:53.060Z,984.21
2017-10-23T08:05:53.017Z,984.19
2017-10-23T08:06:52.993Z,984.21
2017-10-23T08:07:52.918Z,984.22
2017-10-23T08:08:52.886Z,984.22
2017-10-23T08:09:52.840Z,984.26
2017-10-23T08:10:52.805Z,984.21
2017-10-23T08:11:52.788Z,984.27
2017-10-23T08:12:52.714Z,984.24
2017-10-23T08:13:52.697Z,984.23
2017-10-23T08:14:52.649Z,984.27
2017-10-23T08:15:52.594Z,984.31
2017-10-23T08:16:52.555Z,984.27
2017-10-23T08:17:52.531Z,984.31
2017-10-23T08:18:52.485Z,984.30
2017-10-23T08:19:52.468Z,984.31
2017-10-23T08:20:52.438Z,984.31
2017-10-23T08:21:52.353Z,984.31
2017-10-23T08:22:52.310Z,984.31
2017-10-23T08:23:52.272Z,984.31
2017-10-23T08:24:52.224Z,984.35
2017-10-23T08:25:52.242Z,984.38
2017-10-23T08:26:52.152Z,984.27
2017-10-23T08:27:52.112Z,984.32
2017-10-23T08:28:52.079Z,984.36
2017-10-23T08:29:52.054Z,984.34
2017-10-23T08:30:51.997Z,984.29
2017-10-23T08:31:51.947Z,984.31
2017-10-23T08:32:51.911Z,984.36
2017-10-23T08:33:51.875Z,984.32
2017-10-23T08:34:51.824Z,984.33
2017-10-23T08:35:51.791Z,984.28
2017-10-23T08:36:51.733Z,984.29
2017-10-23T08:37:51.697Z,984.35
2017-10-23T08:38:51.660Z,984.33
2017-10-23T08:39:51.616Z,984.32
2017-10-23T08:40:51.590Z,984.29
2017-10-23T08:41:51.533Z,984.28
2017-10-23T08:42:51.510Z,984.30
2017-10-23T08:43:51.485Z,984.33
2017-10-23T08:44:51.431Z,984.37
2017-10-23T08:45:51.408Z,984.32
2017-10-23T08:46:51.329Z,984.31
2017-10-23T08:47:51.297Z,984.36
2017-10-23T08:48:51.256Z,984.40
2017-10-23T08:49:51.214Z,984.36
2017-10-23T08:50:51.174Z,984.36
2017-10-23T08:51:51.139Z,984.35
2017-10-23T08:52:51.096Z,984.36
2017-10-23T08:53:51.043Z,984.36
2017-10-23T08:54:51.030Z,984.36
2017-10-23T08:55:50.967Z,984.44
2017-10-23T08:56:50.943Z,984.46
2017-10-23T08:57:50.891Z,984.43
2017-10-23T08:58:50.850Z,984.41
2017-10-23T08:59:50.806Z,984.48
2017-10-23T09:00:50.775Z,984.47
2017-10-23T09:01:50.732Z,984.48
2017-10-23T09:02:50.699Z,984.54
2017-10-23T09:03:50.646Z,984.48
2017-10-23T09:04:50.616Z,984.53
2017-10-23T09:05:50.581Z,984.50
2017-10-23T09:06:50.527Z,984.49
2017-10-23T09:07:50.514Z,984.51
2017-10-23T09:08:50.484Z,984.53
2017-10-23T09:09:50.434Z,984.55
2017-10-23T09:10:50.382Z,984.55
2017-10-23T09:11:50.349Z,984.60
2017-10-23T09:12:50.296Z,984.59
2017-10-23T09:13:50.257Z,984.60
2017-10-23T09:14:50.222Z,984.64
2017-10-23T09:15:50.174Z,984.64
2017-10-23T09:16:50.142Z,984.61
2017-10-23T09:17:50.119Z,984.62
2017-10-23T09:18:50.187Z,984.58
2017-10-23T09:19:50.022Z,984.64
2017-10-23T09:20:49.969Z,984.62
2017-10-23T09:21:49.946Z,984.62
2017-10-23T09:22:49.909Z,984.62
2017-10-23T09:23:49.855Z,984.58
2017-10-23T09:24:49.854Z,984.59
2017-10-23T09:25:49.783Z,984.60
2017-10-23T09:26:49.730Z,984.63
2017-10-23T09:27:49.705Z,984.65
2017-10-23T09:28:49.693Z,984.56
2017-10-23T09:29:49.623Z,984.61
2017-10-23T09:30:49.589Z,984.66
2017-10-23T09:31:49.541Z,984.62
2017-10-23T09:32:49.497Z,984.63
2017-10-23T09:33:49.464Z,984.64
2017-10-23T09:34:49.473Z,984.67
2017-10-23T09:35:49.378Z,984.64
2017-10-23T09:36:49.354Z,984.68
2017-10-23T09:37:49.294Z,984.69
2017-10-23T09:38:49.267Z,984.75
2017-10-23T09:39:49.222Z,984.68
2017-10-23T09:40:49.205Z,984.72
2017-10-23T09:41:49.137Z,984.66
2017-10-23T09:42:49.094Z,984.75
2017-10-23T09:43:49.078Z,984.69
2017-10-23T09:44:49.040Z,984.69
2017-10-23T09:45:49.030Z,984.74
2017-10-23T09:46:48.952Z,984.70
2017-10-23T09:47:48.903Z,984.76
2017-10-23T09:48:48.875Z,984.74
2017-10-23T09:49:48.828Z,984.71
2017-10-23T09:50:48.782Z,984.73
2017-10-23T09:51:48.746Z,984.73
2017-10-23T09:52:48.698Z,984.72
2017-10-23T09:53:48.668Z,984.78
2017-10-23T09:54:48.663Z,984.74
2017-10-23T09:55:48.622Z,984.70
2017-10-23T09:56:48.545Z,984.77
2017-10-23T09:57:48.511Z,984.78
2017-10-23T09:58:48.530Z,984.81
2017-10-23T09:59:48.433Z,984.81
2017-10-23T10:00:48.459Z,984.82
2017-10-23T10:01:48.344Z,984.78
2017-10-23T10:02:48.315Z,984.82
2017-10-23T10:03:48.281Z,984.85
2017-10-23T10:04:48.221Z,984.81
2017-10-23T10:05:48.188Z,984.85
2017-10-23T10:06:48.153Z,984.80
2017-10-23T10:07:48.103Z,984.75
2017-10-23T10:08:48.122Z,984.86
2017-10-23T10:09:48.025Z,984.80
2017-10-23T10:10:47.991Z,984.78
2017-10-23T10:11:47.957Z,984.84
2017-10-23T10:12:47.914Z,984.86
2017-10-23T10:13:47.869Z,984.86
2017-10-23T10:14:47.849Z,984.87
2017-10-23T10:15:47.809Z,984.85
2017-10-23T10:16:47.771Z,984.88
2017-10-23T10:17:47.719Z,984.84
2017-10-23T10:18:47.690Z,984.88
2017-10-23T10:19:47.686Z,984.87
2017-10-23T10:20:47.626Z,984.93
2017-10-23T10:21:47.574Z,984.91
2017-10-23T10:22:47.527Z,984.90
2017-10-23T10:23:47.495Z,984.89
2017-10-23T10:24:47.439Z,984.85
2017-10-23T10:25:47.401Z,984.85
2017-10-23T10:26:47.404Z,984.85
2017-10-23T10:27:47.322Z,984.77
2017-10-23T10:28:47.322Z,984.85
2017-10-23T10:29:47.251Z,984.87
2017-10-23T10:30:47.197Z,984.90
2017-10-23T10:31:47.175Z,984.92
2017-10-23T10:32:47.145Z,984.94
2017-10-23T10:33:47.097Z,984.95
2017-10-23T10:34:47.048Z,984.90
2017-10-23T10:35:47.002Z,984.90
2017-10-23T10:36:46.996Z,984.95
2017-10-23T10:37:46.941Z,984.89
2017-10-23T10:38:46.896Z,984.91
2017-10-23T10:39:46.867Z,984.88
2017-10-23T10:40:46.806Z,984.92
2017-10-23T10:41:46.775Z,984.92
2017-10-23T10:42:46.731Z,984.94
2017-10-23T10:43:46.697Z,984.91
2017-10-23T10:44:46.667Z,984.90
2017-10-23T10:45:46.625Z,984.92
2017-10-23T10:46:46.581Z,984.91
2017-10-23T10:47:46.558Z,984.92
2017-10-23T10:48:46.493Z,984.92
2017-10-23T10:49:46.471Z,984.93
2017-10-23T10:50:46.420Z,985.01
2017-10-23T10:51:46.400Z,985.01
2017-10-23T10:52:46.351Z,984.95
2017-10-23T10:53:46.312Z,984.94
2017-10-23T10:54:46.272Z,984.98
2017-10-23T10:55:46.248Z,984.97
2017-10-23T10:56:46.226Z,984.93
2017-10-23T10:57:46.175Z,984.97
2017-10-23T10:58:46.132Z,984.98
2017-10-23T10:59:46.082Z,984.95
2017-10-23T11:00:46.042Z,985.00
2017-10-23T11:01:46.016Z,984.95
2017-10-23T11:02:45.990Z,984.95
2017-10-23T11:03:45.929Z,984.98
2017-10-23T11:04:45.923Z,984.98
2017-10-23T11:05:45.854Z,984.96
2017-10-23T11:06:45.832Z,984.94
2017-10-23T11:07:45.799Z,984.94
2017-10-23T11:08:45.746Z,984.95
2017-10-23T11:09:45.737Z,984.97
2017-10-23T11:10:45.697Z,984.98
2017-10-23T11:11:45.637Z,984.96
2017-10-23T11:12:45.608Z,984.93
2017-10-23T11:13:45.581Z,984.96
2017-10-23T11:14:45.529Z,984.96
2017-10-23T11:15:45.486Z,984.94
2017-10-23T11:16:45.468Z,984.91
2017-10-23T11:17:45.421Z,984.91
2017-10-23T11:18:45.396Z,984.92
2017-10-23T11:19:45.343Z,984.93
2017-10-23T11:20:45.308Z,984.84
2017-10-23T11:21:45.274Z,984.93
2017-10-23T11:22:45.240Z,984.95
2017-10-23T11:23:45.197Z,984.94
2017-10-23T11:24:45.162Z,984.86
2017-10-23T11:25:45.153Z,984.89
2017-10-23T11:26:45.096Z,984.89
2017-10-23T11:27:45.065Z,984.89
2017-10-23T11:28:45.017Z,984.90
2017-10-23T11:29:44.990Z,984.91
2017-10-23T11:30:44.949Z,984.95
2017-10-23T11:31:44.929Z,984.90
2017-10-23T11:32:44.874Z,984.89
2017-10-23T11:33:44.837Z,984.96
2017-10-23T11:34:44.823Z,984.91
2017-10-23T11:35:44.759Z,984.90
2017-10-23T11:36:44.716Z,984.91
2017-10-23T11:37:44.700Z,984.94
2017-10-23T11:38:44.670Z,984.97
2017-10-23T11:39:44.607Z,984.97
2017-10-23T11:40:44.594Z,984.93
2017-10-23T11:41:44.533Z,984.97
2017-10-23T11:42:44.497Z,984.92
2017-10-23T11:43:44.479Z,984.95
2017-10-23T11:44:44.430Z,984.91
2017-10-23T11:45:44.380Z,984.89
2017-10-23T11:46:44.361Z,984.93
2017-10-23T11:47:44.304Z,984.92
2017-10-23T11:48:44.273Z,984.94
2017-10-23T11:49:44.228Z,984.96
2017-10-23T11:50:44.209Z,984.96
2017-10-23T11:51:44.166Z,984.98
2017-10-23T11:52:44.134Z,985.00
2017-10-23T11:53:44.095Z,985.01
2017-10-23T11:54:44.043Z,985.00
2017-10-23T11:55:44.006Z,984.99
2017-10-23T11:56:43.976Z,985.02
2017-10-23T11:57:43.922Z,984.94
2017-10-23T11:58:43.896Z,984.97
2017-10-23T11:59:43.861Z,984.96
2017-10-23T12:00:43.823Z,984.97
2017-10-23T12:01:43.793Z,985.00
2017-10-23T12:02:43.743Z,984.99
2017-10-23T12:03:43.715Z,984.98
2017-10-23T12:04:43.665Z,985.01
2017-10-23T12:05:43.641Z,985.06
2017-10-23T12:06:43.589Z,985.07
2017-10-23T12:07:43.552Z,985.07
2017-10-23T12:08:43.544Z,985.11
2017-10-23T12:09:43.479Z,985.05
2017-10-23T12:10:43.449Z,985.05
2017-10-23T12:11:43.406Z,985.06
2017-10-23T12:12:43.373Z,985.05
2017-10-23T12:13:43.330Z,985.05
2017-10-23T12:14:43.288Z,985.03
2017-10-23T12:15:43.269Z,985.03
2017-10-23T12:16:43.213Z,985.05
2017-10-23T12:17:43.192Z,985.02
2017-10-23T12:18:43.140Z,985.06
2017-10-23T12:19:43.103Z,985.10
2017-10-23T12:20:43.185Z,985.06
2017-10-23T12:21:43.037Z,985.10
2017-10-23T12:22:43.007Z,985.08
2017-10-23T12:23:42.977Z,985.09
2017-10-23T12:24:42.928Z,984.98
2017-10-23T12:25:42.894Z,985.05
2017-10-23T12:26:42.854Z,985.06
2017-10-23T12:27:42.832Z,985.07
2017-10-23T12:28:42.784Z,985.07
2017-10-23T12:29:42.750Z,985.07
2017-10-23T12:30:42.709Z,985.10
2017-10-23T12:31:42.688Z,985.08
2017-10-23T12:32:42.639Z,985.15
2017-10-23T12:33:42.601Z,985.13
2017-10-23T12:34:42.565Z,985.12
2017-10-23T12:35:42.527Z,985.09
2017-10-23T12:36:42.496Z,985.10
2017-10-23T12:37:42.457Z,985.13
2017-10-23T12:38:42.403Z,985.13
2017-10-23T12:39:42.378Z,985.05
2017-10-23T12:40:42.359Z,985.09
2017-10-23T12:41:42.340Z,985.09
2017-10-23T12:42:42.270Z,985.12
2017-10-23T12:43:42.229Z,985.10
2017-10-23T12:44:42.191Z,985.14
2017-10-23T12:45:42.175Z,985.16
2017-10-23T12:46:42.107Z,985.08
2017-10-23T12:47:42.087Z,985.09
2017-10-23T12:48:42.038Z,985.11
2017-10-23T12:49:42.005Z,985.08
2017-10-23T12:50:41.968Z,985.09
2017-10-23T12:51:41.943Z,985.08
2017-10-23T12:52:41.897Z,985.08
2017-10-23T12:53:41.853Z,985.12
2017-10-23T12:54:41.819Z,985.14
2017-10-23T12:55:41.807Z,985.11
2017-10-23T12:56:41.763Z,985.10
2017-10-23T12:57:41.732Z,985.08
2017-10-23T12:58:41.685Z,985.18
2017-10-23T12:59:41.647Z,985.14
2017-10-23T13:00:41.601Z,985.16
2017-10-23T13:01:41.569Z,985.14
2017-10-23T13:02:41.540Z,985.13
2017-10-23T13:03:41.486Z,985.14
2017-10-23T13:04:41.494Z,985.17
2017-10-23T13:05:41.416Z,985.17
2017-10-23T13:06:41.385Z,985.18
2017-10-23T13:07:41.351Z,985.20
2017-10-23T13:08:41.307Z,985.19
2017-10-23T13:09:41.272Z,985.19
2017-10-23T13:10:41.236Z,985.24
2017-10-23T13:11:41.204Z,985.19
2017-10-23T13:12:41.161Z,985.24
2017-10-23T13:13:41.116Z,985.26
2017-10-23T13:14:41.089Z,985.29
2017-10-23T13:15:41.059Z,985.30
2017-10-23T13:16:41.043Z,985.27
2017-10-23T13:17:40.986Z,985.20
2017-10-23T13:18:40.943Z,985.21
2017-10-23T13:19:40.922Z,985.28
2017-10-23T13:20:40.855Z,985.29
2017-10-23T13:21:40.816Z,985.26
2017-10-23T13:22:40.774Z,985.33
2017-10-23T13:23:40.731Z,985.26
2017-10-23T13:24:40.713Z,985.28
2017-10-23T13:25:40.668Z,985.30
2017-10-23T13:26:40.634Z,985.28
2017-10-23T13:27:40.575Z,985.26
2017-10-23T13:28:40.553Z,985.27
2017-10-23T13:29:40.509Z,985.26
2017-10-23T13:30:40.488Z,985.26
2017-10-23T13:31:40.445Z,985.28
2017-10-23T13:32:40.401Z,985.31
2017-10-23T13:33:40.388Z,985.29
2017-10-23T13:34:40.342Z,985.26
2017-10-23T13:35:40.278Z,985.28
2017-10-23T13:36:40.275Z,985.30
2017-10-23T13:37:40.211Z,985.31
2017-10-23T13:38:40.184Z,985.30
2017-10-23T13:39:40.148Z,985.31
2017-10-23T13:40:40.127Z,985.33
2017-10-23T13:41:40.074Z,985.39
2017-10-23T13:42:40.029Z,985.33
2017-10-23T13:43:39.996Z,985.31
2017-10-23T13:44:39.966Z,985.32
2017-10-23T13:45:39.926Z,985.36
2017-10-23T13:46:39.869Z,985.39
2017-10-23T13:47:39.848Z,985.38
2017-10-23T13:48:39.822Z,985.39
2017-10-23T13:49:39.755Z,985.44